createdAt,value
2022-07-29T00:01:07.421Z,12.36
2022-07-29T00:03:37.751Z,12.33
2022-07-29T00:06:08.158Z,12.30
2022-07-29T00:08:36.907Z,12.17
2022-07-29T00:11:05.671Z,12.22
2022-07-29T00:13:34.930Z,12.21
2022-07-29T00:16:04.894Z,12.21
2022-07-29T00:18:34.491Z,12.19
2022-07-29T00:21:03.227Z,12.13
2022-07-29T00:23:36.605Z,12.12
2022-07-29T00:26:03.282Z,12.11
2022-07-29T00:28:32.021Z,12.10
2022-07-29T00:31:01.352Z,12.11
2022-07-29T00:33:30.610Z,12.09
2022-07-29T00:35:59.365Z,12.03
2022-07-29T00:38:28.109Z,12.05
2022-07-29T00:40:56.941Z,12.02
2022-07-29T00:43:26.070Z,11.99
2022-07-29T00:45:54.794Z,12.02
2022-07-29T00:48:23.535Z,12.02
2022-07-29T00:50:52.386Z,11.98
2022-07-29T00:53:21.271Z,11.97
2022-07-29T00:55:50.765Z,11.95
2022-07-29T00:58:21.375Z,11.94
2022-07-29T01:00:50.148Z,11.91
2022-07-29T01:03:18.915Z,11.91
2022-07-29T01:05:51.284Z,11.91
2022-07-29T01:08:20.091Z,11.89
2022-07-29T01:10:48.902Z,11.85
2022-07-29T01:13:18.302Z,11.84
2022-07-29T01:15:49.875Z,11.77
2022-07-29T01:18:22.184Z,11.79
2022-07-29T01:20:57.712Z,11.67
2022-07-29T01:23:37.067Z,11.68
2022-07-29T01:26:14.168Z,11.68
2022-07-29T01:28:50.413Z,11.60
2022-07-29T01:31:25.259Z,11.54
2022-07-29T01:33:55.971Z,11.55
2022-07-29T01:36:25.646Z,11.55
2022-07-29T01:39:01.924Z,11.51
2022-07-29T01:41:32.170Z,11.50
2022-07-29T01:44:18.088Z,11.48
2022-07-29T01:46:48.838Z,11.44
2022-07-29T01:49:19.250Z,11.43
2022-07-29T01:51:52.721Z,11.41
2022-07-29T01:54:29.002Z,11.40
2022-07-29T01:56:58.408Z,11.38
2022-07-29T01:59:28.576Z,11.33
2022-07-29T02:01:58.969Z,11.32
2022-07-29T02:04:30.281Z,11.27
2022-07-29T02:07:00.717Z,11.22
2022-07-29T02:09:30.422Z,11.19
2022-07-29T02:12:00.686Z,11.19
2022-07-29T02:14:30.736Z,11.15
2022-07-29T02:17:01.166Z,11.09
2022-07-29T02:19:32.457Z,11.10
2022-07-29T02:22:02.143Z,11.10
2022-07-29T02:24:32.243Z,11.08
2022-07-29T02:27:02.627Z,11.04
2022-07-29T02:29:37.945Z,11.02
2022-07-29T02:32:07.649Z,11.01
2022-07-29T02:34:48.817Z,11.00
2022-07-29T02:37:18.321Z,10.96
2022-07-29T02:39:48.747Z,10.89
2022-07-29T02:42:22.311Z,10.91
2022-07-29T02:44:51.064Z,10.91
2022-07-29T02:47:28.042Z,10.88
2022-07-29T02:49:58.872Z,10.84
2022-07-29T02:52:30.759Z,10.85
2022-07-29T02:55:01.023Z,10.84
2022-07-29T02:57:31.268Z,10.85
2022-07-29T03:00:04.468Z,10.75
2022-07-29T03:02:34.779Z,10.79
2022-07-29T03:05:05.566Z,10.82
2022-07-29T03:07:35.875Z,10.83
2022-07-29T03:10:05.778Z,10.88
2022-07-29T03:12:37.558Z,10.88
2022-07-29T03:15:06.792Z,10.90
2022-07-29T03:17:35.977Z,10.89
2022-07-29T03:20:05.295Z,10.88
2022-07-29T03:22:35.091Z,10.89
2022-07-29T03:25:05.343Z,10.92
2022-07-29T03:27:36.309Z,10.93
2022-07-29T03:30:08.858Z,10.96
2022-07-29T03:32:38.008Z,10.98
2022-07-29T03:35:07.236Z,11.03
2022-07-29T03:37:37.789Z,11.04
2022-07-29T03:40:08.095Z,11.03
2022-07-29T03:42:38.509Z,11.08
2022-07-29T03:45:11.137Z,11.13
2022-07-29T03:47:50.834Z,11.18
2022-07-29T03:50:14.193Z,11.22
2022-07-29T03:52:43.577Z,11.25
2022-07-29T03:55:16.500Z,11.31
2022-07-29T03:57:47.502Z,11.39
2022-07-29T04:00:17.652Z,11.46
2022-07-29T04:02:50.113Z,11.57
2022-07-29T04:05:19.492Z,11.71
2022-07-29T04:07:48.797Z,11.90
2022-07-29T04:10:26.871Z,12.07
2022-07-29T04:12:51.999Z,12.27
2022-07-29T04:15:20.909Z,12.53
2022-07-29T04:17:49.709Z,12.71
2022-07-29T04:20:19.489Z,12.90
2022-07-29T04:22:48.285Z,13.21
2022-07-29T04:25:17.098Z,13.45
2022-07-29T04:28:04.136Z,13.66
2022-07-29T04:30:33.839Z,13.78
2022-07-29T04:33:06.829Z,13.96
2022-07-29T04:35:38.581Z,14.10
2022-07-29T04:38:07.799Z,14.31
2022-07-29T04:40:38.707Z,14.44
2022-07-29T04:43:07.624Z,14.58
2022-07-29T04:45:37.301Z,14.79
2022-07-29T04:48:06.407Z,15.00
2022-07-29T04:50:35.232Z,15.34
2022-07-29T04:53:04.016Z,15.65
2022-07-29T04:55:33.967Z,15.76
2022-07-29T04:58:02.732Z,15.97
2022-07-29T05:00:33.303Z,16.13
2022-07-29T05:03:01.950Z,16.13
2022-07-29T05:05:30.782Z,16.26
2022-07-29T05:07:59.656Z,16.39
2022-07-29T05:10:29.065Z,16.45
2022-07-29T05:12:57.805Z,16.35
2022-07-29T05:15:26.640Z,16.29
2022-07-29T05:17:55.437Z,16.28
2022-07-29T05:20:26.833Z,16.26
2022-07-29T05:22:57.556Z,16.43
2022-07-29T05:25:43.608Z,16.46
2022-07-29T05:27:57.987Z,16.47
2022-07-29T05:30:26.718Z,16.44
2022-07-29T05:32:55.442Z,16.38
2022-07-29T05:35:24.158Z,16.43
2022-07-29T05:37:53.028Z,16.46
2022-07-29T05:40:21.752Z,16.49
2022-07-29T05:42:50.481Z,16.53
2022-07-29T05:45:19.193Z,16.54
2022-07-29T05:47:48.010Z,16.67
2022-07-29T05:50:16.818Z,16.81
2022-07-29T05:52:45.547Z,16.87
2022-07-29T05:55:14.343Z,16.93
2022-07-29T05:57:44.454Z,17.12
2022-07-29T06:00:13.492Z,17.23
2022-07-29T06:02:42.229Z,17.47
2022-07-29T06:05:16.386Z,17.85
2022-07-29T06:07:50.939Z,18.03
2022-07-29T06:10:12.727Z,18.24
2022-07-29T06:12:41.634Z,18.31
2022-07-29T06:15:10.764Z,18.45
2022-07-29T06:17:39.504Z,18.78
2022-07-29T06:20:10.833Z,18.72
2022-07-29T06:22:39.570Z,18.83
2022-07-29T06:25:09.948Z,18.72
2022-07-29T06:27:39.706Z,18.91
2022-07-29T06:30:09.641Z,18.97
2022-07-29T06:32:42.914Z,19.39
2022-07-29T06:35:39.353Z,19.59
2022-07-29T06:37:40.293Z,19.89
2022-07-29T06:40:27.791Z,20.13
2022-07-29T06:42:56.596Z,20.01
2022-07-29T06:45:31.596Z,20.34
2022-07-29T06:48:00.601Z,19.94
2022-07-29T06:50:45.913Z,20.32
2022-07-29T06:53:14.951Z,20.31
2022-07-29T06:55:43.738Z,20.46
2022-07-29T06:58:12.897Z,20.51
2022-07-29T07:00:41.683Z,20.81
2022-07-29T07:03:10.409Z,20.68
2022-07-29T07:05:40.134Z,20.73
2022-07-29T07:08:09.422Z,20.87
2022-07-29T07:10:38.331Z,20.89
2022-07-29T07:13:07.838Z,20.69
2022-07-29T07:15:39.015Z,20.86
2022-07-29T07:18:09.174Z,20.89
2022-07-29T07:20:37.948Z,21.12
2022-07-29T07:23:07.853Z,21.11
2022-07-29T07:25:36.652Z,21.17
2022-07-29T07:28:07.019Z,21.15
2022-07-29T07:30:35.746Z,21.35
2022-07-29T07:33:04.671Z,21.57
2022-07-29T07:35:33.545Z,21.25
2022-07-29T07:38:02.294Z,21.60
2022-07-29T07:40:31.305Z,21.76
2022-07-29T07:43:00.038Z,21.54
2022-07-29T07:45:29.406Z,21.57
2022-07-29T07:47:58.391Z,21.24
2022-07-29T07:50:27.196Z,21.06
2022-07-29T07:52:58.742Z,21.23
2022-07-29T07:55:27.888Z,21.31
2022-07-29T07:57:56.872Z,21.61
2022-07-29T08:00:25.777Z,21.66
2022-07-29T08:02:54.536Z,21.87
2022-07-29T08:05:23.336Z,22.28
2022-07-29T08:07:52.153Z,22.69
2022-07-29T08:10:39.190Z,22.61
2022-07-29T08:13:09.197Z,22.64
2022-07-29T08:15:37.959Z,22.89
2022-07-29T08:18:08.920Z,23.19
2022-07-29T08:20:38.924Z,22.74
2022-07-29T08:23:09.520Z,23.04
2022-07-29T08:25:40.560Z,22.87
2022-07-29T08:28:09.688Z,22.62
2022-07-29T08:30:38.482Z,22.62
2022-07-29T08:33:07.223Z,22.61
2022-07-29T08:35:36.940Z,22.71
2022-07-29T08:38:05.688Z,22.68
2022-07-29T08:40:34.433Z,23.01
2022-07-29T08:43:07.144Z,22.77
2022-07-29T08:45:47.749Z,22.93
2022-07-29T08:48:17.875Z,23.26
2022-07-29T08:50:47.083Z,23.37
2022-07-29T08:53:17.233Z,23.40
2022-07-29T08:55:47.529Z,23.65
2022-07-29T08:58:16.522Z,23.69
2022-07-29T09:00:47.608Z,24.03
2022-07-29T09:03:19.667Z,24.28
2022-07-29T09:05:49.334Z,24.42
2022-07-29T09:08:19.098Z,24.45
2022-07-29T09:10:48.004Z,24.41
2022-07-29T09:13:16.747Z,24.49
2022-07-29T09:15:45.944Z,24.32
2022-07-29T09:18:20.375Z,24.33
2022-07-29T09:21:06.164Z,24.07
2022-07-29T09:23:34.950Z,24.53
2022-07-29T09:26:05.217Z,24.44
2022-07-29T09:28:33.947Z,24.53
2022-07-29T09:31:03.478Z,24.42
2022-07-29T09:33:39.813Z,24.50
2022-07-29T09:36:09.425Z,24.84
2022-07-29T09:38:39.286Z,24.71
2022-07-29T09:41:09.867Z,24.84
2022-07-29T09:43:38.677Z,24.65
2022-07-29T09:46:13.738Z,24.94
2022-07-29T09:48:42.586Z,24.96
2022-07-29T09:51:24.201Z,25.59
2022-07-29T09:53:51.582Z,25.74
2022-07-29T09:56:22.027Z,25.93
2022-07-29T09:58:52.277Z,25.71
2022-07-29T10:01:22.561Z,25.60
2022-07-29T10:03:54.611Z,25.62
2022-07-29T10:06:23.368Z,25.98
2022-07-29T10:08:52.232Z,25.80
2022-07-29T10:11:21.136Z,25.97
2022-07-29T10:13:50.048Z,26.29
2022-07-29T10:16:19.041Z,25.98
2022-07-29T10:18:48.199Z,26.20
2022-07-29T10:21:35.335Z,26.32
2022-07-29T10:23:47.869Z,26.41
2022-07-29T10:26:17.167Z,26.19
2022-07-29T10:28:45.902Z,25.84
2022-07-29T10:31:16.191Z,26.16
2022-07-29T10:33:55.498Z,26.47
2022-07-29T10:36:30.674Z,26.76
2022-07-29T10:39:22.452Z,26.64
2022-07-29T10:41:55.482Z,27.14
2022-07-29T10:44:26.090Z,27.45
2022-07-29T10:46:55.102Z,27.26
2022-07-29T10:49:26.725Z,26.45
2022-07-29T10:52:02.733Z,26.79
2022-07-29T10:54:37.035Z,26.96
2022-07-29T10:57:21.094Z,26.65
2022-07-29T10:59:53.027Z,26.51
2022-07-29T11:02:41.929Z,26.34
2022-07-29T11:05:09.478Z,26.02
2022-07-29T11:07:45.942Z,25.60
2022-07-29T11:10:16.315Z,26.06
2022-07-29T11:12:47.834Z,26.26
2022-07-29T11:15:21.706Z,25.95
2022-07-29T11:18:02.465Z,25.91
2022-07-29T11:20:39.030Z,26.28
2022-07-29T11:23:33.881Z,26.30
2022-07-29T11:26:19.900Z,26.11
2022-07-29T11:28:59.271Z,26.34
2022-07-29T11:31:42.780Z,26.31
2022-07-29T11:34:20.877Z,26.17
2022-07-29T11:37:07.689Z,26.12
2022-07-29T11:39:37.700Z,26.07
2022-07-29T11:42:32.178Z,26.05
2022-07-29T11:44:58.104Z,26.26
2022-07-29T11:47:28.386Z,26.19
2022-07-29T11:49:59.869Z,25.83
2022-07-29T11:52:49.413Z,25.56
2022-07-29T11:55:09.872Z,26.00
2022-07-29T11:57:39.303Z,26.19
2022-07-29T12:00:12.505Z,26.36
2022-07-29T12:02:48.581Z,26.32
2022-07-29T12:05:16.326Z,26.48
2022-07-29T12:07:47.244Z,26.28
2022-07-29T12:10:19.715Z,26.10
2022-07-29T12:12:48.336Z,26.23
2022-07-29T12:15:25.077Z,26.13
2022-07-29T12:17:55.426Z,25.75
2022-07-29T12:20:28.170Z,26.23
2022-07-29T12:22:58.459Z,26.33
2022-07-29T12:25:32.470Z,26.65
2022-07-29T12:28:03.391Z,26.49
2022-07-29T12:30:41.578Z,26.82
2022-07-29T12:33:14.463Z,27.47
2022-07-29T12:35:47.812Z,27.54
2022-07-29T12:38:15.743Z,27.68
2022-07-29T12:40:45.526Z,27.75
2022-07-29T12:43:19.476Z,27.66
2022-07-29T12:45:54.351Z,27.69
2022-07-29T12:48:36.629Z,27.33
2022-07-29T12:51:07.188Z,27.45
2022-07-29T12:53:36.346Z,27.52
2022-07-29T12:56:20.658Z,27.13
2022-07-29T12:58:40.185Z,27.63
2022-07-29T13:01:16.871Z,27.51
2022-07-29T13:03:57.153Z,27.08
2022-07-29T13:06:31.887Z,26.62
2022-07-29T13:09:16.616Z,26.81
2022-07-29T13:11:52.284Z,26.64
2022-07-29T13:14:34.417Z,27.03
2022-07-29T13:17:05.069Z,26.89
2022-07-29T13:19:35.349Z,26.98
2022-07-29T13:22:04.258Z,26.48
2022-07-29T13:24:32.983Z,26.15
2022-07-29T13:27:01.873Z,25.84
2022-07-29T13:29:32.241Z,25.87
2022-07-29T13:32:01.317Z,26.22
2022-07-29T13:34:32.128Z,26.52
2022-07-29T13:37:00.874Z,26.32
2022-07-29T13:39:29.626Z,26.39
2022-07-29T13:41:58.695Z,26.12
2022-07-29T13:44:29.982Z,26.37
2022-07-29T13:47:00.102Z,26.27
2022-07-29T13:49:28.913Z,26.37
2022-07-29T13:51:57.849Z,26.49
2022-07-29T13:54:26.769Z,26.50
2022-07-29T13:56:56.235Z,26.60
2022-07-29T13:59:25.040Z,26.69
2022-07-29T14:01:53.862Z,26.29
2022-07-29T14:04:24.293Z,26.29
2022-07-29T14:06:53.196Z,26.94
2022-07-29T14:09:22.842Z,26.77
2022-07-29T14:11:52.451Z,26.87
2022-07-29T14:14:21.668Z,26.66
2022-07-29T14:16:52.480Z,26.58
2022-07-29T14:19:21.268Z,26.63
2022-07-29T14:21:50.822Z,27.15
2022-07-29T14:24:21.650Z,27.37
2022-07-29T14:26:51.047Z,27.37
2022-07-29T14:29:19.924Z,27.07
2022-07-29T14:31:48.716Z,27.10
2022-07-29T14:34:17.577Z,26.63
2022-07-29T14:36:46.407Z,26.46
2022-07-29T14:39:16.626Z,26.65
2022-07-29T14:41:46.352Z,26.45
2022-07-29T14:44:16.383Z,26.27
2022-07-29T14:46:45.141Z,26.37
2022-07-29T14:49:16.021Z,26.32
2022-07-29T14:51:44.811Z,26.11
2022-07-29T14:54:13.779Z,25.91
2022-07-29T14:56:46.799Z,25.96
2022-07-29T14:59:14.167Z,25.68
2022-07-29T15:01:43.394Z,25.93
2022-07-29T15:04:12.137Z,25.86
2022-07-29T15:06:40.943Z,25.73
2022-07-29T15:09:09.667Z,26.01
2022-07-29T15:11:38.947Z,25.89
2022-07-29T15:14:07.954Z,25.73
2022-07-29T15:16:43.860Z,25.63
2022-07-29T15:19:11.623Z,26.03
2022-07-29T15:21:41.670Z,26.33
2022-07-29T15:24:10.729Z,26.52
2022-07-29T15:26:39.492Z,26.57
2022-07-29T15:29:09.163Z,26.71
2022-07-29T15:31:38.126Z,26.45
2022-07-29T15:34:06.930Z,26.59
2022-07-29T15:36:51.974Z,26.01
2022-07-29T15:39:06.165Z,25.88
2022-07-29T15:41:35.590Z,25.83
2022-07-29T15:44:05.537Z,26.11
2022-07-29T15:46:52.152Z,25.94
2022-07-29T15:49:20.906Z,26.12
2022-07-29T15:51:51.227Z,26.11
2022-07-29T15:54:20.120Z,26.07
2022-07-29T15:56:48.853Z,25.85
2022-07-29T15:59:22.482Z,25.70
2022-07-29T16:01:47.998Z,26.06
2022-07-29T16:04:17.409Z,26.13
2022-07-29T16:06:47.364Z,26.31
2022-07-29T16:09:17.969Z,26.28
2022-07-29T16:11:51.084Z,26.13
2022-07-29T16:14:19.957Z,26.20
2022-07-29T16:16:49.232Z,26.31
2022-07-29T16:19:17.912Z,26.19
2022-07-29T16:21:47.635Z,26.31
2022-07-29T16:27:18.997Z,26.09
2022-07-29T16:29:49.412Z,26.11
2022-07-29T16:32:22.499Z,26.07
2022-07-29T16:34:49.692Z,25.68
2022-07-29T16:37:18.560Z,25.74
2022-07-29T16:39:47.289Z,25.97
2022-07-29T16:42:30.961Z,25.73
2022-07-29T16:44:46.568Z,25.90
2022-07-29T16:47:17.225Z,25.79
2022-07-29T16:49:47.767Z,26.03
2022-07-29T16:52:17.560Z,26.15
2022-07-29T16:54:46.287Z,26.05
2022-07-29T16:57:15.088Z,25.78
2022-07-29T16:59:44.202Z,25.89
2022-07-29T17:02:13.012Z,25.84
2022-07-29T17:04:41.754Z,26.04
2022-07-29T17:07:11.749Z,25.96
2022-07-29T17:09:41.479Z,25.67
2022-07-29T17:12:10.442Z,25.63
2022-07-29T17:14:39.204Z,25.46
2022-07-29T17:17:13.806Z,25.27
2022-07-29T17:19:39.014Z,25.30
2022-07-29T17:22:15.856Z,24.95
2022-07-29T17:24:38.918Z,24.80
2022-07-29T17:27:09.489Z,24.84
2022-07-29T17:29:38.970Z,24.78
2022-07-29T17:32:09.096Z,24.57
2022-07-29T17:34:38.684Z,24.79
2022-07-29T17:37:08.354Z,24.47
2022-07-29T17:39:37.346Z,24.27
2022-07-29T17:42:06.213Z,24.19
2022-07-29T17:44:36.408Z,24.07
2022-07-29T17:47:06.222Z,24.02
2022-07-29T17:49:36.452Z,23.98
2022-07-29T17:52:06.382Z,23.83
2022-07-29T17:54:35.108Z,23.77
2022-07-29T17:57:03.854Z,23.84
2022-07-29T17:59:32.591Z,23.86
2022-07-29T18:02:01.385Z,23.82
2022-07-29T18:04:31.450Z,23.95
2022-07-29T18:07:00.611Z,23.54
2022-07-29T18:09:29.995Z,23.67
2022-07-29T18:11:59.194Z,23.75
2022-07-29T18:14:28.020Z,23.82
2022-07-29T18:16:58.041Z,23.73
2022-07-29T18:19:26.909Z,23.60
2022-07-29T18:21:58.210Z,23.29
2022-07-29T18:24:29.772Z,23.26
2022-07-29T18:26:58.762Z,23.14
2022-07-29T18:29:29.454Z,23.12
2022-07-29T18:31:59.981Z,23.13
2022-07-29T18:34:29.173Z,23.43
2022-07-29T18:36:59.268Z,22.85
2022-07-29T18:39:28.180Z,22.98
2022-07-29T18:41:56.992Z,23.02
2022-07-29T18:44:43.541Z,22.71
2022-07-29T18:47:07.296Z,22.50
2022-07-29T18:49:38.545Z,22.33
2022-07-29T18:52:07.271Z,22.25
2022-07-29T18:54:36.189Z,22.21
2022-07-29T18:57:54.409Z,22.07
2022-07-29T18:59:35.643Z,22.22
2022-07-29T19:02:05.272Z,22.14
2022-07-29T19:04:34.048Z,22.07
2022-07-29T19:07:03.450Z,21.98
2022-07-29T19:09:32.188Z,21.64
2022-07-29T19:12:03.638Z,21.66
2022-07-29T19:14:31.743Z,21.62
2022-07-29T19:17:00.790Z,21.51
2022-07-29T19:19:29.747Z,21.45
2022-07-29T19:21:58.551Z,21.35
2022-07-29T19:24:27.277Z,21.23
2022-07-29T19:26:57.311Z,21.15
2022-07-29T19:29:26.934Z,21.08
2022-07-29T19:31:55.712Z,20.98
2022-07-29T19:34:24.450Z,20.82
2022-07-29T19:36:53.437Z,20.68
2022-07-29T19:39:31.802Z,20.62
2022-07-29T19:41:56.467Z,20.55
2022-07-29T19:44:24.091Z,20.56
2022-07-29T19:46:53.861Z,20.55
2022-07-29T19:49:22.734Z,20.50
2022-07-29T19:51:53.480Z,20.44
2022-07-29T19:54:21.938Z,20.36
2022-07-29T19:56:50.662Z,20.34
2022-07-29T19:59:20.770Z,20.55
2022-07-29T20:01:50.799Z,20.61
2022-07-29T20:04:19.616Z,20.52
2022-07-29T20:06:49.521Z,20.17
2022-07-29T20:09:20.531Z,19.89
2022-07-29T20:11:48.632Z,19.91
2022-07-29T20:14:17.380Z,19.51
2022-07-29T20:16:46.198Z,19.74
2022-07-29T20:19:15.189Z,19.55
2022-07-29T20:21:43.931Z,19.35
2022-07-29T20:24:12.676Z,19.18
2022-07-29T20:26:42.455Z,19.08
2022-07-29T20:29:11.208Z,19.02
2022-07-29T20:31:40.020Z,18.95
2022-07-29T20:34:08.794Z,18.91
2022-07-29T20:36:37.708Z,18.81
2022-07-29T20:39:07.448Z,18.92
2022-07-29T20:41:36.199Z,18.79
2022-07-29T20:44:05.687Z,18.76
2022-07-29T20:46:34.678Z,18.71
2022-07-29T20:49:04.292Z,18.52
2022-07-29T20:51:33.035Z,18.52
2022-07-29T20:54:03.662Z,18.76
2022-07-29T20:56:33.431Z,18.51
2022-07-29T20:59:02.818Z,18.47
2022-07-29T21:01:31.633Z,18.63
2022-07-29T21:04:01.894Z,18.83
2022-07-29T21:06:31.260Z,19.03
2022-07-29T21:09:01.066Z,19.06
2022-07-29T21:11:44.622Z,18.99
2022-07-29T21:14:01.477Z,18.92
2022-07-29T21:16:32.054Z,18.88
2022-07-29T21:19:02.605Z,18.86
2022-07-29T21:21:31.357Z,18.79
2022-07-29T21:24:01.745Z,18.72
2022-07-29T21:26:30.559Z,18.62
2022-07-29T21:28:59.391Z,18.57
2022-07-29T21:31:28.499Z,18.34
2022-07-29T21:33:57.346Z,18.41
2022-07-29T21:36:47.843Z,18.28
2022-07-29T21:38:56.982Z,18.22
2022-07-29T21:41:25.800Z,18.15
2022-07-29T21:43:55.740Z,18.07
2022-07-29T21:46:25.988Z,18.02
2022-07-29T21:48:54.900Z,17.96
2022-07-29T21:51:23.691Z,17.85
2022-07-29T21:53:53.233Z,17.78
2022-07-29T21:56:22.641Z,17.67
2022-07-29T21:58:52.474Z,17.63
2022-07-29T22:01:21.284Z,17.57
2022-07-29T22:03:50.227Z,17.54
2022-07-29T22:06:19.014Z,17.54
2022-07-29T22:08:48.076Z,17.50
2022-07-29T22:11:16.974Z,17.51
2022-07-29T22:13:49.336Z,17.52
2022-07-29T22:16:18.093Z,17.45
2022-07-29T22:18:48.325Z,17.37
2022-07-29T22:21:17.616Z,17.23
2022-07-29T22:23:46.531Z,17.20
2022-07-29T22:26:15.392Z,17.16
2022-07-29T22:28:44.857Z,17.14
2022-07-29T22:31:14.757Z,17.12
2022-07-29T22:33:43.844Z,16.96
2022-07-29T22:36:12.690Z,16.94
2022-07-29T22:38:41.510Z,16.88
2022-07-29T22:41:11.280Z,16.77
2022-07-29T22:43:41.765Z,16.75
2022-07-29T22:46:11.201Z,16.69
2022-07-29T22:48:41.914Z,16.65
2022-07-29T22:51:10.769Z,16.58
2022-07-29T22:53:40.580Z,16.56
2022-07-29T22:56:09.400Z,16.52
2022-07-29T22:58:39.156Z,16.51
2022-07-29T23:01:07.975Z,16.50
2022-07-29T23:03:36.836Z,16.42
2022-07-29T23:06:06.076Z,16.41
2022-07-29T23:08:35.292Z,16.38
2022-07-29T23:11:05.102Z,16.39
2022-07-29T23:13:33.834Z,16.31
2022-07-29T23:16:02.671Z,16.22
2022-07-29T23:18:32.558Z,16.27
2022-07-29T23:21:01.296Z,16.26
2022-07-29T23:23:32.229Z,16.27
2022-07-29T23:26:00.642Z,16.26
2022-07-29T23:28:29.388Z,16.28
2022-07-29T23:30:58.180Z,16.28
2022-07-29T23:33:27.076Z,16.20
2022-07-29T23:35:55.800Z,16.16
2022-07-29T23:38:24.571Z,16.22
2022-07-29T23:40:53.329Z,16.21
2022-07-29T23:43:22.070Z,16.23
2022-07-29T23:45:50.909Z,16.23
2022-07-29T23:48:21.875Z,16.25
2022-07-29T23:50:50.684Z,16.24
2022-07-29T23:53:19.563Z,16.27
2022-07-29T23:55:48.397Z,16.28
2022-07-29T23:58:17.204Z,16.26
